sensor_id;sensor_type;location;lat;lon;timestamp;pressure;altitude;pressure_sealevel;temperature;humidity
68226;BME280;55045;49.410;11.030;2023-03-26T00:00:15;97459.78;;;6.52;100.00
68226;BME280;55045;49.410;11.030;2023-03-26T00:03:19;97448.00;;;6.47;100.00
68226;BME280;55045;49.410;11.030;2023-03-26T00:06:26;97457.13;;;6.54;100.00
68226;BME280;55045;49.410;11.030;2023-03-26T00:09:30;97470.88;;;6.54;100.00
68226;BME280;55045;49.410;11.030;2023-03-26T00:12:33;97467.78;;;6.46;100.00
68226;BME280;55045;49.410;11.030;2023-03-26T00:15:36;97466.88;;;6.47;100.00
68226;BME280;55045;49.410;11.030;2023-03-26T00:18:41;97457.72;;;6.40;100.00
68226;BME280;55045;49.410;11.030;2023-03-26T00:21:46;97459.69;;;6.35;100.00
68226;BME280;55045;49.410;11.030;2023-03-26T00:24:49;97460.13;;;6.45;100.00
68226;BME280;55045;49.410;11.030;2023-03-26T00:27:53;97467.78;;;6.46;100.00
68226;BME280;55045;49.410;11.030;2023-03-26T00:30:58;97467.41;;;6.55;100.00
68226;BME280;55045;49.410;11.030;2023-03-26T00:34:02;97471.06;;;6.50;100.00
68226;BME280;55045;49.410;11.030;2023-03-26T00:37:08;97474.47;;;6.50;100.00
68226;BME280;55045;49.410;11.030;2023-03-26T00:40:13;97469.31;;;6.50;100.00
68226;BME280;55045;49.410;11.030;2023-03-26T00:43:17;97469.59;;;6.44;100.00
68226;BME280;55045;49.410;11.030;2023-03-26T00:46:21;97470.47;;;6.43;100.00
68226;BME280;55045;49.410;11.030;2023-03-26T00:49:24;97478.16;;;6.45;100.00
68226;BME280;55045;49.410;11.030;2023-03-26T00:52:29;97472.81;;;6.49;100.00
68226;BME280;55045;49.410;11.030;2023-03-26T00:55:33;97442.41;;;6.37;100.00
68226;BME280;55045;49.410;11.030;2023-03-26T00:58:36;97450.91;;;6.39;100.00
68226;BME280;55045;49.410;11.030;2023-03-26T01:01:40;97465.59;;;6.57;100.00
68226;BME280;55045;49.410;11.030;2023-03-26T01:04:44;97459.78;;;6.52;100.00
68226;BME280;55045;49.410;11.030;2023-03-26T01:07:50;97461.66;;;6.49;100.00
68226;BME280;55045;49.410;11.030;2023-03-26T01:10:55;97459.84;;;6.51;100.00
68226;BME280;55045;49.410;11.030;2023-03-26T01:14:06;97458.19;;;6.50;100.00
68226;BME280;55045;49.410;11.030;2023-03-26T01:17:10;97457.22;;;6.52;100.00
68226;BME280;55045;49.410;11.030;2023-03-26T01:20:19;97457.22;;;6.52;100.00
68226;BME280;55045;49.410;11.030;2023-03-26T01:23:35;97458.00;;;6.54;100.00
68226;BME280;55045;49.410;11.030;2023-03-26T01:27:10;97451.44;;;6.47;100.00
68226;BME280;55045;49.410;11.030;2023-03-26T01:30:22;97450.31;;;6.53;100.00
68226;BME280;55045;49.410;11.030;2023-03-26T01:33:34;97446.72;;;6.57;100.00
68226;BME280;55045;49.410;11.030;2023-03-26T01:36:43;97450.22;;;6.56;100.00
68226;BME280;55045;49.410;11.030;2023-03-26T01:39:54;97448.09;;;6.45;100.00
68226;BME280;55045;49.410;11.030;2023-03-26T01:43:07;97445.69;;;6.41;100.00
68226;BME280;55045;49.410;11.030;2023-03-26T01:46:14;97446.44;;;6.43;100.00
68226;BME280;55045;49.410;11.030;2023-03-26T01:49:18;97428.50;;;6.41;100.00
68226;BME280;55045;49.410;11.030;2023-03-26T01:52:23;97430.16;;;6.42;100.00
68226;BME280;55045;49.410;11.030;2023-03-26T01:55:34;97424.06;;;6.45;100.00
68226;BME280;55045;49.410;11.030;2023-03-26T01:58:58;97424.09;;;6.43;100.00
68226;BME280;55045;49.410;11.030;2023-03-26T02:02:08;97423.41;;;6.40;100.00
68226;BME280;55045;49.410;11.030;2023-03-26T02:05:18;97417.50;;;6.38;100.00
68226;BME280;55045;49.410;11.030;2023-03-26T02:08:27;97417.28;;;6.42;100.00
68226;BME280;55045;49.410;11.030;2023-03-26T02:11:37;97392.28;;;6.25;100.00
68226;BME280;55045;49.410;11.030;2023-03-26T02:14:43;97409.69;;;6.39;100.00
68226;BME280;55045;49.410;11.030;2023-03-26T02:17:47;97407.25;;;6.36;100.00
68226;BME280;55045;49.410;11.030;2023-03-26T02:20:53;97404.88;;;6.31;100.00
68226;BME280;55045;49.410;11.030;2023-03-26T02:23:56;97382.53;;;6.32;100.00
68226;BME280;55045;49.410;11.030;2023-03-26T02:27:06;97395.34;;;6.33;100.00
68226;BME280;55045;49.410;11.030;2023-03-26T02:30:14;97395.28;;;6.35;100.00
68226;BME280;55045;49.410;11.030;2023-03-26T02:33:20;97384.91;;;6.37;100.00
68226;BME280;55045;49.410;11.030;2023-03-26T02:36:25;97379.84;;;6.35;100.00
68226;BME280;55045;49.410;11.030;2023-03-26T02:39:32;97376.28;;;6.38;100.00
68226;BME280;55045;49.410;11.030;2023-03-26T02:42:44;97383.44;;;6.31;100.00
68226;BME280;55045;49.410;11.030;2023-03-26T02:45:50;97377.94;;;6.39;100.00
68226;BME280;55045;49.410;11.030;2023-03-26T02:49:16;97373.13;;;6.31;100.00
68226;BME280;55045;49.410;11.030;2023-03-26T02:52:19;97366.06;;;6.16;100.00
68226;BME280;55045;49.410;11.030;2023-03-26T02:55:24;97351.59;;;6.13;100.00
68226;BME280;55045;49.410;11.030;2023-03-26T02:58:31;97354.94;;;6.15;100.00
68226;BME280;55045;49.410;11.030;2023-03-26T03:01:35;97358.22;;;5.98;100.00
68226;BME280;55045;49.410;11.030;2023-03-26T03:04:45;97356.75;;;5.93;100.00
68226;BME280;55045;49.410;11.030;2023-03-26T03:07:48;97358.22;;;5.98;100.00
68226;BME280;55045;49.410;11.030;2023-03-26T03:10:55;97336.88;;;5.74;100.00
68226;BME280;55045;49.410;11.030;2023-03-26T03:14:11;97347.72;;;5.83;100.00
68226;BME280;55045;49.410;11.030;2023-03-26T03:17:15;97341.59;;;5.85;100.00
68226;BME280;55045;49.410;11.030;2023-03-26T03:20:21;97345.69;;;5.69;100.00
68226;BME280;55045;49.410;11.030;2023-03-26T03:23:24;97337.22;;;5.45;100.00
68226;BME280;55045;49.410;11.030;2023-03-26T03:26:34;97336.06;;;5.74;100.00
68226;BME280;55045;49.410;11.030;2023-03-26T03:29:50;97331.25;;;5.44;100.00
68226;BME280;55045;49.410;11.030;2023-03-26T03:34:08;97332.56;;;5.55;100.00
68226;BME280;55045;49.410;11.030;2023-03-26T03:37:18;97329.31;;;5.49;100.00
68226;BME280;55045;49.410;11.030;2023-03-26T03:40:28;97330.19;;;5.70;100.00
68226;BME280;55045;49.410;11.030;2023-03-26T03:43:31;97328.13;;;5.78;100.00
68226;BME280;55045;49.410;11.030;2023-03-26T03:46:44;97329.44;;;5.46;100.00
68226;BME280;55045;49.410;11.030;2023-03-26T03:49:48;97329.09;;;5.56;100.00
68226;BME280;55045;49.410;11.030;2023-03-26T03:52:52;97187.16;;;4.63;100.00
68226;BME280;55045;49.410;11.030;2023-03-26T03:55:56;97314.25;;;5.62;100.00
68226;BME280;55045;49.410;11.030;2023-03-26T03:59:18;97329.81;;;5.37;100.00
68226;BME280;55045;49.410;11.030;2023-03-26T04:02:22;97332.38;;;5.37;100.00
68226;BME280;55045;49.410;11.030;2023-03-26T04:05:36;97330.53;;;5.41;100.00
68226;BME280;55045;49.410;11.030;2023-03-26T04:08:40;97319.13;;;5.26;100.00
68226;BME280;55045;49.410;11.030;2023-03-26T04:11:43;97325.72;;;5.33;100.00
68226;BME280;55045;49.410;11.030;2023-03-26T04:14:56;97328.56;;;5.26;100.00
68226;BME280;55045;49.410;11.030;2023-03-26T04:18:01;97297.03;;;5.22;100.00
68226;BME280;55045;49.410;11.030;2023-03-26T04:21:06;97309.88;;;5.22;100.00
68226;BME280;55045;49.410;11.030;2023-03-26T04:24:09;97310.66;;;5.24;100.00
68226;BME280;55045;49.410;11.030;2023-03-26T04:27:38;97303.16;;;5.18;100.00
68226;BME280;55045;49.410;11.030;2023-03-26T04:31:03;97297.44;;;5.33;100.00
68226;BME280;55045;49.410;11.030;2023-03-26T04:34:17;97235.75;;;4.89;100.00
68226;BME280;55045;49.410;11.030;2023-03-26T04:37:35;97285.94;;;5.20;100.00
68226;BME280;55045;49.410;11.030;2023-03-26T04:40:47;97284.16;;;5.22;100.00
68226;BME280;55045;49.410;11.030;2023-03-26T04:44:08;97282.50;;;5.21;100.00
68226;BME280;55045;49.410;11.030;2023-03-26T04:47:23;97289.34;;;5.20;100.00
68226;BME280;55045;49.410;11.030;2023-03-26T04:50:26;97282.22;;;5.27;100.00
68226;BME280;55045;49.410;11.030;2023-03-26T04:53:33;97273.88;;;5.22;100.00
68226;BME280;55045;49.410;11.030;2023-03-26T04:56:57;97275.19;;;5.32;100.00
68226;BME280;55045;49.410;11.030;2023-03-26T05:00:18;97269.13;;;5.33;100.00
68226;BME280;55045;49.410;11.030;2023-03-26T05:03:29;97267.88;;;5.43;100.00
68226;BME280;55045;49.410;11.030;2023-03-26T05:06:38;97260.53;;;5.34;100.00
68226;BME280;55045;49.410;11.030;2023-03-26T05:09:53;97260.53;;;5.34;100.00
68226;BME280;55045;49.410;11.030;2023-03-26T05:13:14;97261.88;;;5.43;100.00
68226;BME280;55045;49.410;11.030;2023-03-26T05:16:24;97249.19;;;5.18;100.00
68226;BME280;55045;49.410;11.030;2023-03-26T05:19:32;97245.78;;;5.17;100.00
68226;BME280;55045;49.410;11.030;2023-03-26T05:22:36;97247.78;;;5.31;100.00
68226;BME280;55045;49.410;11.030;2023-03-26T05:25:56;97243.38;;;5.35;100.00
68226;BME280;55045;49.410;11.030;2023-03-26T05:29:01;97238.59;;;5.26;100.00
68226;BME280;55045;49.410;11.030;2023-03-26T05:32:13;97226.56;;;5.26;100.00
68226;BME280;55045;49.410;11.030;2023-03-26T05:35:17;97226.69;;;5.03;100.00
68226;BME280;55045;49.410;11.030;2023-03-26T05:38:20;97217.50;;;5.17;100.00
68226;BME280;55045;49.410;11.030;2023-03-26T05:41:25;97215.97;;;5.34;100.00
68226;BME280;55045;49.410;11.030;2023-03-26T05:44:29;97209.59;;;5.02;100.00
68226;BME280;55045;49.410;11.030;2023-03-26T05:47:35;97200.34;;;5.18;100.00
68226;BME280;55045;49.410;11.030;2023-03-26T05:50:39;97198.91;;;4.90;100.00
68226;BME280;55045;49.410;11.030;2023-03-26T05:53:42;97200.16;;;5.02;100.00
68226;BME280;55045;49.410;11.030;2023-03-26T05:57:05;97199.94;;;5.07;100.00
68226;BME280;55045;49.410;11.030;2023-03-26T06:00:47;97186.53;;;5.20;100.00
68226;BME280;55045;49.410;11.030;2023-03-26T06:04:02;97178.44;;;5.30;100.00
68226;BME280;55045;49.410;11.030;2023-03-26T06:07:11;97167.72;;;5.59;100.00
68226;BME280;55045;49.410;11.030;2023-03-26T06:10:18;97164.88;;;5.46;100.00
68226;BME280;55045;49.410;11.030;2023-03-26T06:13:23;97152.78;;;5.48;100.00
68226;BME280;55045;49.410;11.030;2023-03-26T06:16:27;97154.81;;;5.61;100.00
68226;BME280;55045;49.410;11.030;2023-03-26T06:19:45;97151.56;;;5.76;100.00
68226;BME280;55045;49.410;11.030;2023-03-26T06:22:58;97156.22;;;5.68;100.00
68226;BME280;55045;49.410;11.030;2023-03-26T06:26:33;97149.50;;;5.84;100.00
68226;BME280;55045;49.410;11.030;2023-03-26T06:30:08;97154.28;;;5.93;100.00
68226;BME280;55045;49.410;11.030;2023-03-26T06:33:17;97152.47;;;5.95;100.00
68226;BME280;55045;49.410;11.030;2023-03-26T06:36:24;97152.31;;;5.98;100.00
68226;BME280;55045;49.410;11.030;2023-03-26T06:39:28;97148.47;;;6.07;100.00
68226;BME280;55045;49.410;11.030;2023-03-26T06:42:45;97143.13;;;6.12;100.00
68226;BME280;55045;49.410;11.030;2023-03-26T06:46:34;97133.94;;;6.06;100.00
68226;BME280;55045;49.410;11.030;2023-03-26T06:50:16;97126.84;;;6.11;100.00
68226;BME280;55045;49.410;11.030;2023-03-26T06:53:57;97125.50;;;6.21;100.00
68226;BME280;55045;49.410;11.030;2023-03-26T06:57:18;97124.47;;;6.25;100.00
68226;BME280;55045;49.410;11.030;2023-03-26T07:00:47;97128.72;;;6.26;100.00
68226;BME280;55045;49.410;11.030;2023-03-26T07:04:15;97119.16;;;6.28;100.00
68226;BME280;55045;49.410;11.030;2023-03-26T07:07:37;97124.72;;;6.38;100.00
68226;BME280;55045;49.410;11.030;2023-03-26T07:11:06;97138.34;;;6.40;100.00
68226;BME280;55045;49.410;11.030;2023-03-26T07:14:32;97136.50;;;6.44;100.00
68226;BME280;55045;49.410;11.030;2023-03-26T07:17:42;97125.97;;;6.48;100.00
68226;BME280;55045;49.410;11.030;2023-03-26T07:20:51;97120.53;;;6.54;100.00
68226;BME280;55045;49.410;11.030;2023-03-26T07:23:56;97113.56;;;6.56;100.00
68226;BME280;55045;49.410;11.030;2023-03-26T07:27:31;97110.22;;;6.54;100.00
68226;BME280;55045;49.410;11.030;2023-03-26T07:30:44;97118.69;;;6.56;100.00
68226;BME280;55045;49.410;11.030;2023-03-26T07:34:17;97097.78;;;6.62;100.00
68226;BME280;55045;49.410;11.030;2023-03-26T07:37:57;97093.09;;;6.71;100.00
68226;BME280;55045;49.410;11.030;2023-03-26T07:41:33;97080.06;;;6.74;100.00
68226;BME280;55045;49.410;11.030;2023-03-26T07:45:02;97080.59;;;6.80;100.00
68226;BME280;55045;49.410;11.030;2023-03-26T07:48:38;97069.28;;;6.83;100.00
68226;BME280;55045;49.410;11.030;2023-03-26T07:52:03;97061.56;;;6.83;100.00
68226;BME280;55045;49.410;11.030;2023-03-26T07:55:49;97049.50;;;6.83;100.00
68226;BME280;55045;49.410;11.030;2023-03-26T07:59:33;97042.84;;;6.79;100.00
68226;BME280;55045;49.410;11.030;2023-03-26T08:03:10;97036.56;;;6.85;100.00
68226;BME280;55045;49.410;11.030;2023-03-26T08:06:37;97037.41;;;6.85;100.00
68226;BME280;55045;49.410;11.030;2023-03-26T08:09:58;97030.63;;;6.83;100.00
68226;BME280;55045;49.410;11.030;2023-03-26T08:13:23;97025.72;;;6.78;100.00
68226;BME280;55045;49.410;11.030;2023-03-26T08:16:34;97039.72;;;6.73;100.00
68226;BME280;55045;49.410;11.030;2023-03-26T08:19:51;97002.47;;;6.45;100.00
68226;BME280;55045;49.410;11.030;2023-03-26T08:23:04;97042.09;;;6.77;100.00
68226;BME280;55045;49.410;11.030;2023-03-26T08:26:13;97046.16;;;6.64;100.00
68226;BME280;55045;49.410;11.030;2023-03-26T08:29:25;97043.09;;;6.57;100.00
68226;BME280;55045;49.410;11.030;2023-03-26T08:32:34;97046.34;;;6.44;100.00
68226;BME280;55045;49.410;11.030;2023-03-26T08:35:38;97027.25;;;6.48;100.00
68226;BME280;55045;49.410;11.030;2023-03-26T08:38:43;97028.69;;;6.36;100.00
68226;BME280;55045;49.410;11.030;2023-03-26T08:42:03;97028.69;;;6.36;100.00
68226;BME280;55045;49.410;11.030;2023-03-26T08:45:29;97013.81;;;6.41;100.00
68226;BME280;55045;49.410;11.030;2023-03-26T08:49:01;97018.06;;;6.25;100.00
68226;BME280;55045;49.410;11.030;2023-03-26T08:55:43;97005.88;;;6.28;100.00
68226;BME280;55045;49.410;11.030;2023-03-26T08:59:17;97004.34;;;6.42;100.00
68226;BME280;55045;49.410;11.030;2023-03-26T09:02:55;97000.81;;;6.44;100.00
68226;BME280;55045;49.410;11.030;2023-03-26T09:06:29;96992.38;;;6.41;100.00
68226;BME280;55045;49.410;11.030;2023-03-26T09:10:07;96992.56;;;6.38;100.00
68226;BME280;55045;49.410;11.030;2023-03-26T09:21:18;97005.97;;;6.44;100.00
68226;BME280;55045;49.410;11.030;2023-03-26T09:28:39;96990.03;;;6.53;100.00
68226;BME280;55045;49.410;11.030;2023-03-26T09:34:27;96997.34;;;6.45;100.00
68226;BME280;55045;49.410;11.030;2023-03-26T09:41:09;97000.72;;;6.28;100.00
68226;BME280;55045;49.410;11.030;2023-03-26T09:48:26;96991.88;;;6.34;100.00
68226;BME280;55045;49.410;11.030;2023-03-26T09:51:47;97006.41;;;6.35;100.00
68226;BME280;55045;49.410;11.030;2023-03-26T09:55:13;96996.84;;;6.20;100.00
68226;BME280;55045;49.410;11.030;2023-03-26T09:58:45;97020.25;;;6.32;100.00
68226;BME280;55045;49.410;11.030;2023-03-26T10:01:56;97012.34;;;6.54;100.00
68226;BME280;55045;49.410;11.030;2023-03-26T10:05:34;97009.00;;;6.35;100.00
68226;BME280;55045;49.410;11.030;2023-03-26T10:08:53;96994.84;;;6.44;100.00
68226;BME280;55045;49.410;11.030;2023-03-26T10:12:22;96992.03;;;6.48;100.00
68226;BME280;55045;49.410;11.030;2023-03-26T10:15:33;96988.22;;;6.55;100.00
68226;BME280;55045;49.410;11.030;2023-03-26T10:18:47;96981.41;;;6.54;100.00
68226;BME280;55045;49.410;11.030;2023-03-26T10:22:00;96991.72;;;6.54;100.00
68226;BME280;55045;49.410;11.030;2023-03-26T10:25:32;96987.63;;;6.50;100.00
68226;BME280;55045;49.410;11.030;2023-03-26T10:28:47;96987.41;;;6.55;100.00
68226;BME280;55045;49.410;11.030;2023-03-26T10:32:08;96985.19;;;6.30;100.00
68226;BME280;55045;49.410;11.030;2023-03-26T10:35:25;96983.75;;;6.42;100.00
68226;BME280;55045;49.410;11.030;2023-03-26T10:38:46;96974.72;;;6.33;100.00
68226;BME280;55045;49.410;11.030;2023-03-26T10:41:59;96965.72;;;6.42;100.00
68226;BME280;55045;49.410;11.030;2023-03-26T10:45:17;96963.38;;;6.37;100.00
68226;BME280;55045;49.410;11.030;2023-03-26T10:48:32;96955.81;;;6.34;100.00
68226;BME280;55045;49.410;11.030;2023-03-26T10:51:45;96951.44;;;6.36;100.00
68226;BME280;55045;49.410;11.030;2023-03-26T10:54:55;96943.63;;;6.38;100.00
68226;BME280;55045;49.410;11.030;2023-03-26T10:58:11;96947.78;;;6.40;100.00
68226;BME280;55045;49.410;11.030;2023-03-26T11:01:26;96953.09;;;6.37;100.00
68226;BME280;55045;49.410;11.030;2023-03-26T11:04:43;96949.16;;;6.47;100.00
68226;BME280;55045;49.410;11.030;2023-03-26T11:07:55;96951.06;;;6.44;100.00
68226;BME280;55045;49.410;11.030;2023-03-26T11:11:11;96943.63;;;6.38;100.00
68226;BME280;55045;49.410;11.030;2023-03-26T11:14:20;96940.81;;;6.42;100.00
68226;BME280;55045;49.410;11.030;2023-03-26T11:17:43;96933.50;;;6.68;100.00
68226;BME280;55045;49.410;11.030;2023-03-26T11:20:54;96924.59;;;6.57;100.00
68226;BME280;55045;49.410;11.030;2023-03-26T11:24:43;96903.31;;;6.37;100.00
68226;BME280;55045;49.410;11.030;2023-03-26T11:28:00;96914.50;;;6.53;100.00
68226;BME280;55045;49.410;11.030;2023-03-26T11:31:14;96899.72;;;6.89;100.00
68226;BME280;55045;49.410;11.030;2023-03-26T11:34:27;96849.97;;;6.56;100.00
68226;BME280;55045;49.410;11.030;2023-03-26T11:37:38;96882.91;;;6.67;100.00
68226;BME280;55045;49.410;11.030;2023-03-26T11:40:45;96881.00;;;7.02;100.00
68226;BME280;55045;49.410;11.030;2023-03-26T11:44:15;96871.78;;;7.13;100.00
68226;BME280;55045;49.410;11.030;2023-03-26T11:47:25;96866.97;;;7.07;100.00
68226;BME280;55045;49.410;11.030;2023-03-26T11:50:35;96863.31;;;7.11;100.00
68226;BME280;55045;49.410;11.030;2023-03-26T11:53:42;96884.00;;;6.94;100.00
68226;BME280;55045;49.410;11.030;2023-03-26T11:56:49;96869.13;;;6.99;100.00
68226;BME280;55045;49.410;11.030;2023-03-26T12:00:11;96877.78;;;7.14;100.00
68226;BME280;55045;49.410;11.030;2023-03-26T12:03:20;96857.00;;;7.17;100.00
68226;BME280;55045;49.410;11.030;2023-03-26T12:06:25;96850.34;;;7.29;100.00
68226;BME280;55045;49.410;11.030;2023-03-26T12:09:29;96848.22;;;7.35;100.00
68226;BME280;55045;49.410;11.030;2023-03-26T12:12:36;96851.03;;;7.62;100.00
68226;BME280;55045;49.410;11.030;2023-03-26T12:15:42;96853.28;;;7.68;100.00
68226;BME280;55045;49.410;11.030;2023-03-26T12:18:57;96845.13;;;7.60;100.00
68226;BME280;55045;49.410;11.030;2023-03-26T12:22:00;96846.38;;;7.53;100.00
68226;BME280;55045;49.410;11.030;2023-03-26T12:25:14;96825.44;;;7.73;100.00
68226;BME280;55045;49.410;11.030;2023-03-26T12:28:18;96819.56;;;7.86;100.00
68226;BME280;55045;49.410;11.030;2023-03-26T12:31:22;96824.38;;;7.92;100.00
68226;BME280;55045;49.410;11.030;2023-03-26T12:34:30;96813.44;;;8.17;100.00
68226;BME280;55045;49.410;11.030;2023-03-26T12:37:37;96733.66;;;8.12;100.00
68226;BME280;55045;49.410;11.030;2023-03-26T12:40:44;96797.59;;;8.80;100.00
68226;BME280;55045;49.410;11.030;2023-03-26T12:43:51;96777.38;;;8.72;100.00
68226;BME280;55045;49.410;11.030;2023-03-26T12:47:18;96773.22;;;9.11;100.00
68226;BME280;55045;49.410;11.030;2023-03-26T12:50:54;96759.38;;;8.98;100.00
68226;BME280;55045;49.410;11.030;2023-03-26T12:54:20;96750.91;;;9.22;100.00
68226;BME280;55045;49.410;11.030;2023-03-26T12:57:30;96742.38;;;9.60;100.00
68226;BME280;55045;49.410;11.030;2023-03-26T13:00:44;96722.59;;;9.59;100.00
68226;BME280;55045;49.410;11.030;2023-03-26T13:04:06;96712.19;;;9.61;100.00
68226;BME280;55045;49.410;11.030;2023-03-26T13:07:22;96726.03;;;9.60;100.00
68226;BME280;55045;49.410;11.030;2023-03-26T13:10:47;96716.72;;;10.08;100.00
68226;BME280;55045;49.410;11.030;2023-03-26T13:13:59;96711.31;;;10.11;100.00
68226;BME280;55045;49.410;11.030;2023-03-26T13:17:11;96697.97;;;9.66;100.00
68226;BME280;55045;49.410;11.030;2023-03-26T13:20:26;96707.81;;;10.12;100.00
68226;BME280;55045;49.410;11.030;2023-03-26T13:23:40;96693.72;;;10.29;100.00
68226;BME280;55045;49.410;11.030;2023-03-26T13:26:55;96700.06;;;10.61;100.00
68226;BME280;55045;49.410;11.030;2023-03-26T13:30:06;96686.59;;;10.56;100.00
68226;BME280;55045;49.410;11.030;2023-03-26T13:33:28;96689.25;;;10.91;100.00
68226;BME280;55045;49.410;11.030;2023-03-26T13:36:41;96645.13;;;10.56;100.00
68226;BME280;55045;49.410;11.030;2023-03-26T13:39:58;96681.47;;;11.15;100.00
68226;BME280;55045;49.410;11.030;2023-03-26T13:43:21;96670.91;;;10.94;100.00
68226;BME280;55045;49.410;11.030;2023-03-26T13:46:33;96671.38;;;11.00;100.00
68226;BME280;55045;49.410;11.030;2023-03-26T13:49:40;96661.06;;;10.87;100.00
68226;BME280;55045;49.410;11.030;2023-03-26T13:52:48;96650.38;;;11.27;100.00
68226;BME280;55045;49.410;11.030;2023-03-26T13:55:56;96648.03;;;11.00;100.00
68226;BME280;55045;49.410;11.030;2023-03-26T13:59:06;96645.88;;;10.70;100.00
68226;BME280;55045;49.410;11.030;2023-03-26T14:02:16;96646.78;;;10.57;100.00
68226;BME280;55045;49.410;11.030;2023-03-26T14:05:25;96646.00;;;10.44;100.00
68226;BME280;55045;49.410;11.030;2023-03-26T14:08:34;96639.81;;;10.34;100.00
68226;BME280;55045;49.410;11.030;2023-03-26T14:11:48;96642.78;;;10.41;100.00
68226;BME280;55045;49.410;11.030;2023-03-26T14:14:59;96640.94;;;10.30;100.00
68226;BME280;55045;49.410;11.030;2023-03-26T14:18:15;96655.81;;;10.02;100.00
68226;BME280;55045;49.410;11.030;2023-03-26T14:21:33;96696.31;;;8.73;100.00
68226;BME280;55045;49.410;11.030;2023-03-26T14:24:52;96659.34;;;11.80;100.00
68226;BME280;55045;49.410;11.030;2023-03-26T14:28:09;96642.91;;;9.51;100.00
68226;BME280;55045;49.410;11.030;2023-03-26T14:31:23;96633.69;;;9.73;100.00
68226;BME280;55045;49.410;11.030;2023-03-26T14:34:38;96629.97;;;9.51;100.00
68226;BME280;55045;49.410;11.030;2023-03-26T14:38:11;96624.09;;;9.99;100.00
68226;BME280;55045;49.410;11.030;2023-03-26T14:41:22;96631.91;;;9.86;100.00
68226;BME280;55045;49.410;11.030;2023-03-26T14:44:37;96621.75;;;9.83;100.00
68226;BME280;55045;49.410;11.030;2023-03-26T14:48:02;96615.41;;;10.00;100.00
68226;BME280;55045;49.410;11.030;2023-03-26T14:51:17;96618.91;;;10.12;100.00
68226;BME280;55045;49.410;11.030;2023-03-26T14:54:26;96615.16;;;10.16;100.00
68226;BME280;55045;49.410;11.030;2023-03-26T15:01:20;96601.38;;;10.28;100.00
68226;BME280;55045;49.410;11.030;2023-03-26T15:04:45;96603.81;;;10.66;100.00
68226;BME280;55045;49.410;11.030;2023-03-26T15:08:36;96590.06;;;10.77;100.00
68226;BME280;55045;49.410;11.030;2023-03-26T15:11:56;96584.03;;;11.11;100.00
68226;BME280;55045;49.410;11.030;2023-03-26T15:15:36;96581.22;;;11.14;100.00
68226;BME280;55045;49.410;11.030;2023-03-26T15:19:27;96576.41;;;11.32;100.00
68226;BME280;55045;49.410;11.030;2023-03-26T15:22:51;96577.09;;;11.23;100.00
68226;BME280;55045;49.410;11.030;2023-03-26T15:26:23;96585.00;;;11.21;100.00
68226;BME280;55045;49.410;11.030;2023-03-26T15:38:07;96585.06;;;11.66;100.00
68226;BME280;55045;49.410;11.030;2023-03-26T15:41:16;96573.72;;;11.78;100.00
68226;BME280;55045;49.410;11.030;2023-03-26T15:44:31;96578.22;;;11.65;99.44
68226;BME280;55045;49.410;11.030;2023-03-26T15:51:44;96585.50;;;11.60;97.79
68226;BME280;55045;49.410;11.030;2023-03-26T15:54:56;96583.16;;;11.46;95.00
68226;BME280;55045;49.410;11.030;2023-03-26T15:58:10;96585.50;;;11.38;95.50
68226;BME280;55045;49.410;11.030;2023-03-26T16:01:30;96587.03;;;11.29;95.62
68226;BME280;55045;49.410;11.030;2023-03-26T16:04:43;96591.38;;;11.29;96.63
68226;BME280;55045;49.410;11.030;2023-03-26T16:08:02;96591.94;;;11.21;97.54
68226;BME280;55045;49.410;11.030;2023-03-26T16:11:08;96590.63;;;11.04;95.15
68226;BME280;55045;49.410;11.030;2023-03-26T16:14:17;96582.31;;;10.88;98.38
68226;BME280;55045;49.410;11.030;2023-03-26T16:17:24;96587.31;;;10.67;99.22
68226;BME280;55045;49.410;11.030;2023-03-26T16:20:32;96573.91;;;10.49;100.00
68226;BME280;55045;49.410;11.030;2023-03-26T16:23:53;96595.31;;;10.64;99.32
68226;BME280;55045;49.410;11.030;2023-03-26T16:27:02;96590.63;;;10.45;100.00
68226;BME280;55045;49.410;11.030;2023-03-26T16:30:28;96591.69;;;10.43;100.00
68226;BME280;55045;49.410;11.030;2023-03-26T16:33:36;96587.34;;;10.43;100.00
68226;BME280;55045;49.410;11.030;2023-03-26T16:36:42;96583.13;;;10.29;100.00
68226;BME280;55045;49.410;11.030;2023-03-26T16:39:48;96585.09;;;10.26;100.00
68226;BME280;55045;49.410;11.030;2023-03-26T16:42:54;96595.69;;;10.23;100.00
68226;BME280;55045;49.410;11.030;2023-03-26T16:46:09;96598.19;;;10.12;100.00
68226;BME280;55045;49.410;11.030;2023-03-26T16:49:25;96590.88;;;9.93;100.00
68226;BME280;55045;49.410;11.030;2023-03-26T16:52:36;96577.53;;;9.86;100.00
68226;BME280;55045;49.410;11.030;2023-03-26T16:55:52;96587.38;;;9.81;100.00
68226;BME280;55045;49.410;11.030;2023-03-26T16:59:00;96585.44;;;9.72;100.00
68226;BME280;55045;49.410;11.030;2023-03-26T17:02:15;96591.53;;;9.71;100.00
68226;BME280;55045;49.410;11.030;2023-03-26T17:05:23;96590.09;;;9.67;100.00
68226;BME280;55045;49.410;11.030;2023-03-26T17:08:33;96590.09;;;9.29;100.00
68226;BME280;55045;49.410;11.030;2023-03-26T17:11:47;96577.25;;;9.27;100.00
68226;BME280;55045;49.410;11.030;2023-03-26T17:15:05;96597.84;;;9.16;100.00
68226;BME280;55045;49.410;11.030;2023-03-26T17:18:23;96608.19;;;9.16;100.00
68226;BME280;55045;49.410;11.030;2023-03-26T17:21:35;96612.88;;;9.36;100.00
68226;BME280;55045;49.410;11.030;2023-03-26T17:24:51;96617.53;;;9.31;100.00
68226;BME280;55045;49.410;11.030;2023-03-26T17:28:21;96619.16;;;9.07;100.00
68226;BME280;55045;49.410;11.030;2023-03-26T17:31:35;96615.84;;;9.05;100.00
68226;BME280;55045;49.410;11.030;2023-03-26T17:34:54;96616.41;;;8.70;100.00